sensor_id;sensor_type;location;lat;lon;timestamp;temperature;humidity
70166;SHT30;57541;47.408;18.822;2023-07-29T00:00:08;19.20;99.16
70166;SHT30;57541;47.408;18.822;2023-07-29T00:00:40;19.18;99.12
70166;SHT30;57541;47.408;18.822;2023-07-29T00:01:12;19.20;99.04
70166;SHT30;57541;47.408;18.822;2023-07-29T00:01:44;19.19;98.92
70166;SHT30;57541;47.408;18.822;2023-07-29T00:02:16;19.23;98.89
70166;SHT30;57541;47.408;18.822;2023-07-29T00:02:48;19.25;98.73
70166;SHT30;57541;47.408;18.822;2023-07-29T00:03:20;19.29;98.62
70166;SHT30;57541;47.408;18.822;2023-07-29T00:03:52;19.27;98.48
70166;SHT30;57541;47.408;18.822;2023-07-29T00:04:23;19.33;98.39
70166;SHT30;57541;47.408;18.822;2023-07-29T00:04:55;19.33;98.37
70166;SHT30;57541;47.408;18.822;2023-07-29T00:05:27;19.29;98.35
70166;SHT30;57541;47.408;18.822;2023-07-29T00:05:58;19.30;98.51
70166;SHT30;57541;47.408;18.822;2023-07-29T00:06:30;19.29;98.44
70166;SHT30;57541;47.408;18.822;2023-07-29T00:07:02;19.22;98.85
70166;SHT30;57541;47.408;18.822;2023-07-29T00:07:34;19.20;98.94
70166;SHT30;57541;47.408;18.822;2023-07-29T00:08:06;19.22;98.86
70166;SHT30;57541;47.408;18.822;2023-07-29T00:08:38;19.23;98.64
70166;SHT30;57541;47.408;18.822;2023-07-29T00:09:09;19.25;98.61
70166;SHT30;57541;47.408;18.822;2023-07-29T00:09:41;19.30;98.62
70166;SHT30;57541;47.408;18.822;2023-07-29T00:10:13;19.27;98.65
70166;SHT30;57541;47.408;18.822;2023-07-29T00:10:44;19.25;98.80
70166;SHT30;57541;47.408;18.822;2023-07-29T00:11:16;19.19;98.73
70166;SHT30;57541;47.408;18.822;2023-07-29T00:11:48;19.22;98.83
70166;SHT30;57541;47.408;18.822;2023-07-29T00:12:20;19.16;99.00
70166;SHT30;57541;47.408;18.822;2023-07-29T00:12:52;19.16;98.86
70166;SHT30;57541;47.408;18.822;2023-07-29T00:13:24;19.12;99.00
70166;SHT30;57541;47.408;18.822;2023-07-29T00:13:55;19.12;99.10
70166;SHT30;57541;47.408;18.822;2023-07-29T00:14:27;19.15;98.83
70166;SHT30;57541;47.408;18.822;2023-07-29T00:14:59;19.11;98.85
70166;SHT30;57541;47.408;18.822;2023-07-29T00:15:31;19.02;99.24
70166;SHT30;57541;47.408;18.822;2023-07-29T00:16:02;19.11;99.02
70166;SHT30;57541;47.408;18.822;2023-07-29T00:16:34;19.06;99.18
70166;SHT30;57541;47.408;18.822;2023-07-29T00:17:06;19.11;98.98
70166;SHT30;57541;47.408;18.822;2023-07-29T00:17:39;19.08;99.01
70166;SHT30;57541;47.408;18.822;2023-07-29T00:18:11;19.12;98.96
70166;SHT30;57541;47.408;18.822;2023-07-29T00:18:43;19.12;98.92
70166;SHT30;57541;47.408;18.822;2023-07-29T00:19:15;19.12;98.80
70166;SHT30;57541;47.408;18.822;2023-07-29T00:19:47;19.11;98.88
70166;SHT30;57541;47.408;18.822;2023-07-29T00:20:18;19.13;98.66
70166;SHT30;57541;47.408;18.822;2023-07-29T00:20:50;19.11;98.67
70166;SHT30;57541;47.408;18.822;2023-07-29T00:21:22;19.12;98.75
70166;SHT30;57541;47.408;18.822;2023-07-29T00:21:53;19.01;99.05
70166;SHT30;57541;47.408;18.822;2023-07-29T00:22:25;19.01;99.04
70166;SHT30;57541;47.408;18.822;2023-07-29T00:22:57;19.08;98.92
70166;SHT30;57541;47.408;18.822;2023-07-29T00:23:30;19.11;98.88
70166;SHT30;57541;47.408;18.822;2023-07-29T00:24:02;19.08;98.93
70166;SHT30;57541;47.408;18.822;2023-07-29T00:24:33;18.99;98.94
70166;SHT30;57541;47.408;18.822;2023-07-29T00:25:05;18.99;98.89
70166;SHT30;57541;47.408;18.822;2023-07-29T00:25:37;18.99;98.63
70166;SHT30;57541;47.408;18.822;2023-07-29T00:26:09;18.98;98.93
70166;SHT30;57541;47.408;18.822;2023-07-29T00:26:40;19.05;98.87
70166;SHT30;57541;47.408;18.822;2023-07-29T00:27:12;19.04;98.76
70166;SHT30;57541;47.408;18.822;2023-07-29T00:27:44;18.96;98.91
70166;SHT30;57541;47.408;18.822;2023-07-29T00:28:15;18.95;99.24
70166;SHT30;57541;47.408;18.822;2023-07-29T00:28:47;18.99;99.08
70166;SHT30;57541;47.408;18.822;2023-07-29T00:29:19;19.04;98.90
70166;SHT30;57541;47.408;18.822;2023-07-29T00:29:51;19.01;98.88
70166;SHT30;57541;47.408;18.822;2023-07-29T00:30:22;18.99;98.77
70166;SHT30;57541;47.408;18.822;2023-07-29T00:30:54;18.94;99.01
70166;SHT30;57541;47.408;18.822;2023-07-29T00:31:27;18.89;99.15
70166;SHT30;57541;47.408;18.822;2023-07-29T00:31:58;18.88;99.15
70166;SHT30;57541;47.408;18.822;2023-07-29T00:32:30;18.81;99.33
70166;SHT30;57541;47.408;18.822;2023-07-29T00:33:02;18.85;99.25
70166;SHT30;57541;47.408;18.822;2023-07-29T00:33:34;18.81;99.29
70166;SHT30;57541;47.408;18.822;2023-07-29T00:34:06;18.79;99.46
70166;SHT30;57541;47.408;18.822;2023-07-29T00:34:37;18.76;99.63
70166;SHT30;57541;47.408;18.822;2023-07-29T00:35:09;18.83;99.40
70166;SHT30;57541;47.408;18.822;2023-07-29T00:35:41;18.81;99.36
70166;SHT30;57541;47.408;18.822;2023-07-29T00:36:13;18.76;99.25
70166;SHT30;57541;47.408;18.822;2023-07-29T00:36:45;18.78;99.28
70166;SHT30;57541;47.408;18.822;2023-07-29T00:37:17;18.83;99.18
70166;SHT30;57541;47.408;18.822;2023-07-29T00:37:49;18.84;99.11
70166;SHT30;57541;47.408;18.822;2023-07-29T00:38:20;18.76;99.25
70166;SHT30;57541;47.408;18.822;2023-07-29T00:38:52;18.75;99.39
70166;SHT30;57541;47.408;18.822;2023-07-29T00:39:25;18.51;99.96
70166;SHT30;57541;47.408;18.822;2023-07-29T00:39:57;18.54;99.99
70166;SHT30;57541;47.408;18.822;2023-07-29T00:40:30;18.51;99.99
70166;SHT30;57541;47.408;18.822;2023-07-29T00:41:05;18.60;99.99
70166;SHT30;57541;47.408;18.822;2023-07-29T00:41:37;18.68;99.80
70166;SHT30;57541;47.408;18.822;2023-07-29T00:42:09;18.69;99.62
70166;SHT30;57541;47.408;18.822;2023-07-29T00:42:40;18.64;99.71
70166;SHT30;57541;47.408;18.822;2023-07-29T00:43:14;18.68;99.70
70166;SHT30;57541;47.408;18.822;2023-07-29T00:43:45;18.65;99.64
70166;SHT30;57541;47.408;18.822;2023-07-29T00:44:17;18.67;99.71
70166;SHT30;57541;47.408;18.822;2023-07-29T00:44:49;18.67;99.58
70166;SHT30;57541;47.408;18.822;2023-07-29T00:45:20;18.68;99.54
70166;SHT30;57541;47.408;18.822;2023-07-29T00:45:52;18.68;99.46
70166;SHT30;57541;47.408;18.822;2023-07-29T00:46:24;18.68;99.43
70166;SHT30;57541;47.408;18.822;2023-07-29T00:46:56;18.71;99.36
70166;SHT30;57541;47.408;18.822;2023-07-29T00:47:28;18.64;99.41
70166;SHT30;57541;47.408;18.822;2023-07-29T00:48:01;18.61;99.48
70166;SHT30;57541;47.408;18.822;2023-07-29T00:48:33;18.54;99.55
70166;SHT30;57541;47.408;18.822;2023-07-29T00:49:05;18.57;99.74
70166;SHT30;57541;47.408;18.822;2023-07-29T00:49:37;18.58;99.65
70166;SHT30;57541;47.408;18.822;2023-07-29T00:50:10;18.54;99.60
70166;SHT30;57541;47.408;18.822;2023-07-29T00:50:43;18.60;99.57
70166;SHT30;57541;47.408;18.822;2023-07-29T00:51:14;18.54;99.67
70166;SHT30;57541;47.408;18.822;2023-07-29T00:51:46;18.55;99.60
70166;SHT30;57541;47.408;18.822;2023-07-29T00:52:18;18.50;99.71
70166;SHT30;57541;47.408;18.822;2023-07-29T00:52:50;18.47;99.65
70166;SHT30;57541;47.408;18.822;2023-07-29T00:53:22;18.47;99.70
70166;SHT30;57541;47.408;18.822;2023-07-29T00:53:53;18.41;99.99
70166;SHT30;57541;47.408;18.822;2023-07-29T00:54:25;18.40;99.99
70166;SHT30;57541;47.408;18.822;2023-07-29T00:54:57;18.46;99.99
70166;SHT30;57541;47.408;18.822;2023-07-29T00:55:28;18.47;99.84
70166;SHT30;57541;47.408;18.822;2023-07-29T00:56:00;18.46;99.72
70166;SHT30;57541;47.408;18.822;2023-07-29T00:56:32;18.44;99.95
70166;SHT30;57541;47.408;18.822;2023-07-29T00:57:04;18.34;99.99
70166;SHT30;57541;47.408;18.822;2023-07-29T00:57:37;18.33;99.99
70166;SHT30;57541;47.408;18.822;2023-07-29T00:58:10;18.26;99.99
70166;SHT30;57541;47.408;18.822;2023-07-29T00:58:42;18.26;99.99
70166;SHT30;57541;47.408;18.822;2023-07-29T00:59:14;18.20;99.99
70166;SHT30;57541;47.408;18.822;2023-07-29T00:59:46;18.20;99.99
70166;SHT30;57541;47.408;18.822;2023-07-29T01:00:18;18.24;99.99
70166;SHT30;57541;47.408;18.822;2023-07-29T01:00:50;18.23;99.99
70166;SHT30;57541;47.408;18.822;2023-07-29T01:01:22;18.17;99.99
70166;SHT30;57541;47.408;18.822;2023-07-29T01:01:53;18.17;99.99
70166;SHT30;57541;47.408;18.822;2023-07-29T01:02:26;18.18;99.99
70166;SHT30;57541;47.408;18.822;2023-07-29T01:02:58;18.13;99.99
70166;SHT30;57541;47.408;18.822;2023-07-29T01:03:30;18.16;99.99
70166;SHT30;57541;47.408;18.822;2023-07-29T01:04:02;18.16;99.99
70166;SHT30;57541;47.408;18.822;2023-07-29T01:04:34;18.17;99.99
70166;SHT30;57541;47.408;18.822;2023-07-29T01:05:06;18.20;99.99
70166;SHT30;57541;47.408;18.822;2023-07-29T01:06:06;18.22;99.99
70166;SHT30;57541;47.408;18.822;2023-07-29T01:08:16;18.24;99.99
70166;SHT30;57541;47.408;18.822;2023-07-29T01:09:02;18.20;99.99
70166;SHT30;57541;47.408;18.822;2023-07-29T01:10:46;18.29;99.85
70166;SHT30;57541;47.408;18.822;2023-07-29T01:11:27;18.30;99.89
70166;SHT30;57541;47.408;18.822;2023-07-29T01:12:27;18.27;99.98
70166;SHT30;57541;47.408;18.822;2023-07-29T01:13:26;18.33;99.82
70166;SHT30;57541;47.408;18.822;2023-07-29T01:14:24;18.37;99.61
70166;SHT30;57541;47.408;18.822;2023-07-29T01:15:13;18.37;99.55
70166;SHT30;57541;47.408;18.822;2023-07-29T01:15:55;18.48;99.26
70166;SHT30;57541;47.408;18.822;2023-07-29T01:16:34;18.48;99.12
70166;SHT30;57541;47.408;18.822;2023-07-29T01:17:18;18.41;99.20
70166;SHT30;57541;47.408;18.822;2023-07-29T01:18:04;18.33;99.75
70166;SHT30;57541;47.408;18.822;2023-07-29T01:18:37;18.36;99.79
70166;SHT30;57541;47.408;18.822;2023-07-29T01:19:43;18.34;99.65
70166;SHT30;57541;47.408;18.822;2023-07-29T01:20:11;18.36;99.51
70166;SHT30;57541;47.408;18.822;2023-07-29T01:20:43;18.30;99.78
70166;SHT30;57541;47.408;18.822;2023-07-29T01:21:16;18.32;99.86
70166;SHT30;57541;47.408;18.822;2023-07-29T01:21:49;18.34;99.73
70166;SHT30;57541;47.408;18.822;2023-07-29T01:22:21;18.40;99.54
70166;SHT30;57541;47.408;18.822;2023-07-29T01:22:54;18.40;99.64
70166;SHT30;57541;47.408;18.822;2023-07-29T01:23:29;18.38;99.53
70166;SHT30;57541;47.408;18.822;2023-07-29T01:24:01;18.40;99.54
70166;SHT30;57541;47.408;18.822;2023-07-29T01:24:33;18.44;99.52
70166;SHT30;57541;47.408;18.822;2023-07-29T01:25:05;18.41;99.46
70166;SHT30;57541;47.408;18.822;2023-07-29T01:25:37;18.37;99.67
70166;SHT30;57541;47.408;18.822;2023-07-29T01:26:08;18.29;99.78
70166;SHT30;57541;47.408;18.822;2023-07-29T01:26:40;18.24;99.99
70166;SHT30;57541;47.408;18.822;2023-07-29T01:27:12;18.29;99.99
70166;SHT30;57541;47.408;18.822;2023-07-29T01:27:45;18.29;99.98
70166;SHT30;57541;47.408;18.822;2023-07-29T01:28:17;18.23;99.99
70166;SHT30;57541;47.408;18.822;2023-07-29T01:28:49;18.18;99.99
70166;SHT30;57541;47.408;18.822;2023-07-29T01:29:21;18.09;99.99
70166;SHT30;57541;47.408;18.822;2023-07-29T01:29:54;18.12;99.99
70166;SHT30;57541;47.408;18.822;2023-07-29T01:30:39;18.14;99.99
70166;SHT30;57541;47.408;18.822;2023-07-29T01:31:16;18.05;99.99
70166;SHT30;57541;47.408;18.822;2023-07-29T01:31:54;18.03;99.99
70166;SHT30;57541;47.408;18.822;2023-07-29T01:32:47;18.07;99.99
70166;SHT30;57541;47.408;18.822;2023-07-29T01:33:26;18.10;99.99
70166;SHT30;57541;47.408;18.822;2023-07-29T01:34:05;18.16;99.99
70166;SHT30;57541;47.408;18.822;2023-07-29T01:36:41;18.27;99.76
70166;SHT30;57541;47.408;18.822;2023-07-29T01:37:22;18.23;99.80
70166;SHT30;57541;47.408;18.822;2023-07-29T01:38:05;18.14;99.96
70166;SHT30;57541;47.408;18.822;2023-07-29T01:38:38;18.17;99.99
70166;SHT30;57541;47.408;18.822;2023-07-29T01:39:14;18.18;99.97
70166;SHT30;57541;47.408;18.822;2023-07-29T01:39:46;18.18;99.83
70166;SHT30;57541;47.408;18.822;2023-07-29T01:40:20;18.03;99.99
70166;SHT30;57541;47.408;18.822;2023-07-29T01:40:54;18.06;99.99
70166;SHT30;57541;47.408;18.822;2023-07-29T01:41:27;18.12;99.99
70166;SHT30;57541;47.408;18.822;2023-07-29T01:41:59;18.12;99.99
70166;SHT30;57541;47.408;18.822;2023-07-29T01:42:31;18.13;99.99
70166;SHT30;57541;47.408;18.822;2023-07-29T01:43:03;18.09;99.99
70166;SHT30;57541;47.408;18.822;2023-07-29T01:43:36;18.10;99.99
70166;SHT30;57541;47.408;18.822;2023-07-29T01:44:14;18.03;99.99
70166;SHT30;57541;47.408;18.822;2023-07-29T01:44:46;18.03;99.99
70166;SHT30;57541;47.408;18.822;2023-07-29T01:45:18;17.97;99.99
70166;SHT30;57541;47.408;18.822;2023-07-29T01:45:50;17.96;99.99
70166;SHT30;57541;47.408;18.822;2023-07-29T01:46:22;17.96;99.99
70166;SHT30;57541;47.408;18.822;2023-07-29T01:46:55;17.92;99.99
70166;SHT30;57541;47.408;18.822;2023-07-29T01:47:27;17.90;99.99
70166;SHT30;57541;47.408;18.822;2023-07-29T01:47:59;17.97;99.99
70166;SHT30;57541;47.408;18.822;2023-07-29T01:48:31;17.93;99.99
70166;SHT30;57541;47.408;18.822;2023-07-29T01:49:03;17.88;99.99
70166;SHT30;57541;47.408;18.822;2023-07-29T01:49:35;17.79;99.99
70166;SHT30;57541;47.408;18.822;2023-07-29T01:50:07;17.83;99.99
70166;SHT30;57541;47.408;18.822;2023-07-29T01:50:39;17.85;99.99
70166;SHT30;57541;47.408;18.822;2023-07-29T01:51:12;17.76;99.99
70166;SHT30;57541;47.408;18.822;2023-07-29T01:51:43;17.79;99.99
70166;SHT30;57541;47.408;18.822;2023-07-29T01:52:15;17.83;99.99
70166;SHT30;57541;47.408;18.822;2023-07-29T01:52:47;17.85;99.99
70166;SHT30;57541;47.408;18.822;2023-07-29T01:53:18;17.86;99.99
70166;SHT30;57541;47.408;18.822;2023-07-29T01:53:50;17.86;99.99
70166;SHT30;57541;47.408;18.822;2023-07-29T01:54:22;17.83;99.99
70166;SHT30;57541;47.408;18.822;2023-07-29T01:54:54;17.81;99.99
70166;SHT30;57541;47.408;18.822;2023-07-29T01:55:26;17.78;99.99
70166;SHT30;57541;47.408;18.822;2023-07-29T01:55:58;17.66;99.99
70166;SHT30;57541;47.408;18.822;2023-07-29T01:56:30;17.58;99.99
70166;SHT30;57541;47.408;18.822;2023-07-29T01:57:02;17.59;99.99
70166;SHT30;57541;47.408;18.822;2023-07-29T01:57:33;17.64;99.99
70166;SHT30;57541;47.408;18.822;2023-07-29T01:58:05;17.66;99.99
70166;SHT30;57541;47.408;18.822;2023-07-29T01:58:37;17.59;99.99
70166;SHT30;57541;47.408;18.822;2023-07-29T01:59:08;17.51;99.99
70166;SHT30;57541;47.408;18.822;2023-07-29T01:59:40;17.58;99.99
70166;SHT30;57541;47.408;18.822;2023-07-29T02:00:12;17.48;99.99
70166;SHT30;57541;47.408;18.822;2023-07-29T02:00:43;17.55;99.99
70166;SHT30;57541;47.408;18.822;2023-07-29T02:01:15;17.51;99.99
70166;SHT30;57541;47.408;18.822;2023-07-29T02:01:47;17.45;99.99
70166;SHT30;57541;47.408;18.822;2023-07-29T02:02:20;17.49;99.99
70166;SHT30;57541;47.408;18.822;2023-07-29T02:02:51;17.48;99.99
70166;SHT30;57541;47.408;18.822;2023-07-29T02:03:23;17.42;99.99
70166;SHT30;57541;47.408;18.822;2023-07-29T02:03:55;17.44;99.99
70166;SHT30;57541;47.408;18.822;2023-07-29T02:04:27;17.49;99.99
70166;SHT30;57541;47.408;18.822;2023-07-29T02:04:59;17.44;99.99
70166;SHT30;57541;47.408;18.822;2023-07-29T02:05:31;17.49;99.99
70166;SHT30;57541;47.408;18.822;2023-07-29T02:06:02;17.52;99.99
70166;SHT30;57541;47.408;18.822;2023-07-29T02:06:34;17.54;99.99
70166;SHT30;57541;47.408;18.822;2023-07-29T02:07:06;17.49;99.99
70166;SHT30;57541;47.408;18.822;2023-07-29T02:07:38;17.47;99.99
70166;SHT30;57541;47.408;18.822;2023-07-29T02:08:10;17.52;99.99
70166;SHT30;57541;47.408;18.822;2023-07-29T02:08:43;17.52;99.99
70166;SHT30;57541;47.408;18.822;2023-07-29T02:09:14;17.52;99.99
70166;SHT30;57541;47.408;18.822;2023-07-29T02:09:46;17.51;99.99
70166;SHT30;57541;47.408;18.822;2023-07-29T02:10:17;17.47;99.99
70166;SHT30;57541;47.408;18.822;2023-07-29T02:10:49;17.49;99.99
70166;SHT30;57541;47.408;18.822;2023-07-29T02:11:21;17.44;99.99
70166;SHT30;57541;47.408;18.822;2023-07-29T02:11:58;17.48;99.99
70166;SHT30;57541;47.408;18.822;2023-07-29T02:12:30;17.49;99.99
70166;SHT30;57541;47.408;18.822;2023-07-29T02:13:03;17.54;99.99
70166;SHT30;57541;47.408;18.822;2023-07-29T02:13:34;17.51;99.99
70166;SHT30;57541;47.408;18.822;2023-07-29T02:14:06;17.54;99.99
70166;SHT30;57541;47.408;18.822;2023-07-29T02:14:38;17.51;99.99
70166;SHT30;57541;47.408;18.822;2023-07-29T02:15:10;17.47;99.99
70166;SHT30;57541;47.408;18.822;2023-07-29T02:15:42;17.48;99.99
70166;SHT30;57541;47.408;18.822;2023-07-29T02:16:13;17.52;99.99
70166;SHT30;57541;47.408;18.822;2023-07-29T02:16:45;17.51;99.99
70166;SHT30;57541;47.408;18.822;2023-07-29T02:17:17;17.48;99.99
70166;SHT30;57541;47.408;18.822;2023-07-29T02:17:50;17.51;99.99
70166;SHT30;57541;47.408;18.822;2023-07-29T02:18:22;17.49;99.99
70166;SHT30;57541;47.408;18.822;2023-07-29T02:18:53;17.52;99.99
70166;SHT30;57541;47.408;18.822;2023-07-29T02:19:26;17.54;99.99
70166;SHT30;57541;47.408;18.822;2023-07-29T02:19:58;17.48;99.99
70166;SHT30;57541;47.408;18.822;2023-07-29T02:20:30;17.47;99.99
70166;SHT30;57541;47.408;18.822;2023-07-29T02:21:02;17.45;99.99
70166;SHT30;57541;47.408;18.822;2023-07-29T02:21:34;17.44;99.99
70166;SHT30;57541;47.408;18.822;2023-07-29T02:22:06;17.45;99.99
70166;SHT30;57541;47.408;18.822;2023-07-29T02:22:38;17.51;99.99
70166;SHT30;57541;47.408;18.822;2023-07-29T02:23:09;17.45;99.99
70166;SHT30;57541;47.408;18.822;2023-07-29T02:23:41;17.48;99.99
70166;SHT30;57541;47.408;18.822;2023-07-29T02:24:13;17.52;99.99
70166;SHT30;57541;47.408;18.822;2023-07-29T02:24:45;17.35;99.99
70166;SHT30;57541;47.408;18.822;2023-07-29T02:25:16;17.34;99.99
70166;SHT30;57541;47.408;18.822;2023-07-29T02:25:48;17.32;99.99
70166;SHT30;57541;47.408;18.822;2023-07-29T02:26:19;17.38;99.99
70166;SHT30;57541;47.408;18.822;2023-07-29T02:26:51;17.34;99.99
70166;SHT30;57541;47.408;18.822;2023-07-29T02:27:23;17.27;99.99
70166;SHT30;57541;47.408;18.822;2023-07-29T02:27:58;17.31;99.99
70166;SHT30;57541;47.408;18.822;2023-07-29T02:28:29;17.27;99.99
70166;SHT30;57541;47.408;18.822;2023-07-29T02:29:01;17.32;99.99
70166;SHT30;57541;47.408;18.822;2023-07-29T02:29:33;17.30;99.99
70166;SHT30;57541;47.408;18.822;2023-07-29T02:30:05;17.24;99.99
70166;SHT30;57541;47.408;18.822;2023-07-29T02:30:41;17.32;99.99
70166;SHT30;57541;47.408;18.822;2023-07-29T02:31:16;17.18;99.99
70166;SHT30;57541;47.408;18.822;2023-07-29T02:31:48;17.23;99.99
70166;SHT30;57541;47.408;18.822;2023-07-29T02:32:20;17.24;99.99
70166;SHT30;57541;47.408;18.822;2023-07-29T02:32:52;17.26;99.99
70166;SHT30;57541;47.408;18.822;2023-07-29T02:33:24;17.26;99.99
70166;SHT30;57541;47.408;18.822;2023-07-29T02:33:56;17.23;99.99
70166;SHT30;57541;47.408;18.822;2023-07-29T02:34:27;17.26;99.99
70166;SHT30;57541;47.408;18.822;2023-07-29T02:34:59;17.28;99.99
70166;SHT30;57541;47.408;18.822;2023-07-29T02:35:31;17.31;99.99
70166;SHT30;57541;47.408;18.822;2023-07-29T02:36:03;17.34;99.99
70166;SHT30;57541;47.408;18.822;2023-07-29T02:36:35;17.31;99.99
70166;SHT30;57541;47.408;18.822;2023-07-29T02:37:07;17.32;99.99
70166;SHT30;57541;47.408;18.822;2023-07-29T02:37:38;17.38;99.99
70166;SHT30;57541;47.408;18.822;2023-07-29T02:38:10;17.38;99.99
70166;SHT30;57541;47.408;18.822;2023-07-29T02:38:42;17.35;99.99
70166;SHT30;57541;47.408;18.822;2023-07-29T02:39:14;17.31;99.99
70166;SHT30;57541;47.408;18.822;2023-07-29T02:39:46;17.30;99.99
70166;SHT30;57541;47.408;18.822;2023-07-29T02:40:17;17.30;99.99
70166;SHT30;57541;47.408;18.822;2023-07-29T02:40:49;17.31;99.99
70166;SHT30;57541;47.408;18.822;2023-07-29T02:41:21;17.32;99.99
70166;SHT30;57541;47.408;18.822;2023-07-29T02:41:52;17.34;99.99
70166;SHT30;57541;47.408;18.822;2023-07-29T02:42:24;17.34;99.99
70166;SHT30;57541;47.408;18.822;2023-07-29T02:42:56;17.32;99.99
70166;SHT30;57541;47.408;18.822;2023-07-29T02:43:27;17.34;99.99
70166;SHT30;57541;47.408;18.822;2023-07-29T02:43:59;17.37;99.99
70166;SHT30;57541;47.408;18.822;2023-07-29T02:44:31;17.41;99.99
70166;SHT30;57541;47.408;18.822;2023-07-29T02:45:03;17.38;99.99
70166;SHT30;57541;47.408;18.822;2023-07-29T02:45:35;17.39;99.99
70166;SHT30;57541;47.408;18.822;2023-07-29T02:46:07;17.42;99.99
70166;SHT30;57541;47.408;18.822;2023-07-29T02:46:39;17.45;99.99
70166;SHT30;57541;47.408;18.822;2023-07-29T02:47:11;17.42;99.99
70166;SHT30;57541;47.408;18.822;2023-07-29T02:47:43;17.35;99.99
70166;SHT30;57541;47.408;18.822;2023-07-29T02:48:14;17.42;99.99
70166;SHT30;57541;47.408;18.822;2023-07-29T02:48:46;17.44;99.99
70166;SHT30;57541;47.408;18.822;2023-07-29T02:49:18;17.47;99.99
70166;SHT30;57541;47.408;18.822;2023-07-29T02:49:49;17.42;99.99
70166;SHT30;57541;47.408;18.822;2023-07-29T02:50:21;17.41;99.99
70166;SHT30;57541;47.408;18.822;2023-07-29T02:50:54;17.42;99.99
70166;SHT30;57541;47.408;18.822;2023-07-29T02:51:26;17.41;99.99
70166;SHT30;57541;47.408;18.822;2023-07-29T02:51:57;17.41;99.99
70166;SHT30;57541;47.408;18.822;2023-07-29T02:52:29;17.44;99.99
70166;SHT30;57541;47.408;18.822;2023-07-29T02:53:01;17.39;99.99
70166;SHT30;57541;47.408;18.822;2023-07-29T02:53:33;17.35;99.99
70166;SHT30;57541;47.408;18.822;2023-07-29T02:54:04;17.38;99.99
70166;SHT30;57541;47.408;18.822;2023-07-29T02:54:36;17.39;99.99
70166;SHT30;57541;47.408;18.822;2023-07-29T02:55:08;17.42;99.99
70166;SHT30;57541;47.408;18.822;2023-07-29T02:55:40;17.41;99.99
70166;SHT30;57541;47.408;18.822;2023-07-29T02:56:12;17.45;99.99
70166;SHT30;57541;47.408;18.822;2023-07-29T02:56:44;17.39;99.99
70166;SHT30;57541;47.408;18.822;2023-07-29T02:57:15;17.45;99.99
70166;SHT30;57541;47.408;18.822;2023-07-29T02:57:48;17.41;99.99
70166;SHT30;57541;47.408;18.822;2023-07-29T02:58:20;17.34;99.99
70166;SHT30;57541;47.408;18.822;2023-07-29T02:58:52;17.32;99.99
70166;SHT30;57541;47.408;18.822;2023-07-29T02:59:23;17.38;99.99
70166;SHT30;57541;47.408;18.822;2023-07-29T02:59:56;17.34;99.99
70166;SHT30;57541;47.408;18.822;2023-07-29T03:00:31;17.35;99.99
70166;SHT30;57541;47.408;18.822;2023-07-29T03:01:04;17.34;99.99
70166;SHT30;57541;47.408;18.822;2023-07-29T03:01:36;17.26;99.99
70166;SHT30;57541;47.408;18.822;2023-07-29T03:02:07;17.34;99.99
70166;SHT30;57541;47.408;18.822;2023-07-29T03:02:39;17.32;99.99
70166;SHT30;57541;47.408;18.822;2023-07-29T03:03:11;17.35;99.99
70166;SHT30;57541;47.408;18.822;2023-07-29T03:03:43;17.39;99.99
70166;SHT30;57541;47.408;18.822;2023-07-29T03:04:15;17.34;99.99
70166;SHT30;57541;47.408;18.822;2023-07-29T03:04:48;17.30;99.99
70166;SHT30;57541;47.408;18.822;2023-07-29T03:05:19;17.32;99.99
70166;SHT30;57541;47.408;18.822;2023-07-29T03:06:05;17.34;99.99
70166;SHT30;57541;47.408;18.822;2023-07-29T03:06:36;17.34;99.99
70166;SHT30;57541;47.408;18.822;2023-07-29T03:07:08;17.34;99.99
70166;SHT30;57541;47.408;18.822;2023-07-29T03:07:41;17.32;99.99
70166;SHT30;57541;47.408;18.822;2023-07-29T03:08:12;17.35;99.99
70166;SHT30;57541;47.408;18.822;2023-07-29T03:08:44;17.38;99.99
70166;SHT30;57541;47.408;18.822;2023-07-29T03:09:16;17.32;99.99
70166;SHT30;57541;47.408;18.822;2023-07-29T03:09:47;17.41;99.99
70166;SHT30;57541;47.408;18.822;2023-07-29T03:10:19;17.42;99.99
70166;SHT30;57541;47.408;18.822;2023-07-29T03:10:52;17.45;99.99
70166;SHT30;57541;47.408;18.822;2023-07-29T03:11:23;17.41;99.99
70166;SHT30;57541;47.408;18.822;2023-07-29T03:11:55;17.44;99.99
70166;SHT30;57541;47.408;18.822;2023-07-29T03:12:27;17.35;99.99
70166;SHT30;57541;47.408;18.822;2023-07-29T03:12:58;17.35;99.99
70166;SHT30;57541;47.408;18.822;2023-07-29T03:13:30;17.28;99.99
70166;SHT30;57541;47.408;18.822;2023-07-29T03:14:01;17.31;99.99
70166;SHT30;57541;47.408;18.822;2023-07-29T03:14:33;17.37;99.99
70166;SHT30;57541;47.408;18.822;2023-07-29T03:15:06;17.37;99.99
70166;SHT30;57541;47.408;18.822;2023-07-29T03:15:37;17.35;99.99
70166;SHT30;57541;47.408;18.822;2023-07-29T03:16:14;17.38;99.99
70166;SHT30;57541;47.408;18.822;2023-07-29T03:16:46;17.37;99.99
70166;SHT30;57541;47.408;18.822;2023-07-29T03:17:18;17.38;99.99
70166;SHT30;57541;47.408;18.822;2023-07-29T03:17:50;17.38;99.99
70166;SHT30;57541;47.408;18.822;2023-07-29T03:18:22;17.41;99.99
70166;SHT30;57541;47.408;18.822;2023-07-29T03:18:54;17.44;99.99
70166;SHT30;57541;47.408;18.822;2023-07-29T03:19:26;17.47;99.99
70166;SHT30;57541;47.408;18.822;2023-07-29T03:19:57;17.39;99.99
70166;SHT30;57541;47.408;18.822;2023-07-29T03:20:29;17.37;99.99
70166;SHT30;57541;47.408;18.822;2023-07-29T03:21:01;17.34;99.99
70166;SHT30;57541;47.408;18.822;2023-07-29T03:21:33;17.41;99.99
70166;SHT30;57541;47.408;18.822;2023-07-29T03:22:05;17.41;99.99
70166;SHT30;57541;47.408;18.822;2023-07-29T03:22:37;17.44;99.99
70166;SHT30;57541;47.408;18.822;2023-07-29T03:23:08;17.41;99.99
70166;SHT30;57541;47.408;18.822;2023-07-29T03:23:40;17.35;99.99
70166;SHT30;57541;47.408;18.822;2023-07-29T03:24:12;17.39;99.99
70166;SHT30;57541;47.408;18.822;2023-07-29T03:24:43;17.41;99.99
70166;SHT30;57541;47.408;18.822;2023-07-29T03:25:15;17.39;99.99
70166;SHT30;57541;47.408;18.822;2023-07-29T03:25:49;17.41;99.99
70166;SHT30;57541;47.408;18.822;2023-07-29T03:26:22;17.42;99.99
70166;SHT30;57541;47.408;18.822;2023-07-29T03:26:54;17.45;99.99
70166;SHT30;57541;47.408;18.822;2023-07-29T03:27:26;17.47;99.99
70166;SHT30;57541;47.408;18.822;2023-07-29T03:27:58;17.48;99.99
70166;SHT30;57541;47.408;18.822;2023-07-29T03:28:32;17.45;99.99
70166;SHT30;57541;47.408;18.822;2023-07-29T03:29:04;17.45;99.99